logo
Search for airport 
image banner adimage banner adimage banner ad
image banner ad

EPKP - Pobiednik K/Krakowa

Located in , Poland

ICAO - EPKP, IATA -

Data provided by Airmate  

General information

Coordinates: N50°5'14" E20°12'10"
Elevation is 659 feet MSL.
Magnetic variation is 4.0000° East
Rated:
View ratings:
[VIEW]
View others Airports in Lesser Poland

Operational data

Special qualification required
Current time UTC:
Current local time:
Weather at : EPKK - Krakow/Balice ( 30 km )
METAR: EPKK 291530Z 24007KT CAVOK 08/M04 Q1019
TAF: TAF EPKK 291430Z 2915/3015 23010KT CAVOK BECMG 2916/2919 VRB02KT BECMG 3007/3010 25010KT BECMG 3010/3013 25016G27KT
View NOTAMs / SUP AIP / TFR affecting this airport [VIEW]
Communications frequencies: [VIEW]

Runways:

RWY identifierQFULength (ft)Width (ft)SurfaceLDA (ft)
09L95°3215394GRASS3215
27R275°3215394GRASS3215
09R95°3609164GRASS3609
27L275°3609164GRASS3609

Airport contact information

Address: Poland

Other aviation service providers

Aviation club (not for profit)

Aeroklub Krakowski

Aeroklub Krakowski

Satellite view of EPKP